Time;durP1;ratioP1;P1;durP2;ratioP2;P2;SDS_P1;SDS_P2;PMS_P1;PMS_P2;Temp;Humidity;BMP_temperature;BMP_pressure;BME280_temperature;BME280_humidity;BME280_pressure;Samples;Min_cycle;Max_cycle;Signal;HPM_P1;HPM_P2
2022/09/14 00:01:22;;;;;;;4.07;3.60;;;;;;;16.38;66.93;94561.13;5128040;28;20189;-83
2022/09/14 00:03:52;;;;;;;4.07;3.67;;;;;;;16.16;66.96;94533.59;5106447;28;20285;-83
2022/09/14 00:06:18;;;;;;;4.30;3.70;;;;;;;16.36;67.17;94570.00;5109648;28;20672;-82
2022/09/14 00:08:49;;;;;;;4.20;3.80;;;;;;;16.51;67.41;94588.91;5126793;28;20202;-82
2022/09/14 00:11:16;;;;;;;6.33;3.90;;;;;;;16.49;67.37;94591.66;5127323;28;20262;-82
2022/09/14 00:13:45;;;;;;;5.50;3.97;;;;;;;16.50;67.41;94597.63;5127127;28;20204;-82
2022/09/14 00:16:15;;;;;;;4.47;3.77;;;;;;;16.47;67.82;94603.94;5124415;28;20208;-82
2022/09/14 00:18:42;;;;;;;4.73;4.00;;;;;;;16.48;67.20;94604.72;5112839;28;20659;-83
2022/09/14 00:21:11;;;;;;;4.70;4.30;;;;;;;15.47;67.07;94446.81;5112246;28;20188;-81
2022/09/14 00:23:40;;;;;;;5.73;4.20;;;;;;;16.25;67.87;94576.41;5112752;28;20690;-83
2022/09/14 00:26:11;;;;;;;4.53;3.90;;;;;;;16.39;68.19;94600.63;5112224;28;20228;-82
2022/09/14 00:28:40;;;;;;;5.33;4.20;;;;;;;16.34;68.69;94596.00;5113293;28;20188;-82
2022/09/14 00:31:08;;;;;;;12.03;4.67;;;;;;;16.27;68.74;94598.47;5115909;28;20195;-82
2022/09/14 00:33:37;;;;;;;4.70;3.50;;;;;;;16.28;68.45;94596.72;5113233;28;20246;-84
2022/09/14 00:36:06;;;;;;;5.93;4.53;;;;;;;15.18;68.65;94418.38;5111885;28;20246;-82
2022/09/14 00:38:33;;;;;;;9.60;3.97;;;;;;;15.37;69.77;94454.00;5112458;28;20193;-82
2022/09/14 00:41:01;;;;;;;4.60;4.20;;;;;;;16.22;69.65;94594.81;5112335;28;20284;-81
2022/09/14 00:43:28;;;;;;;4.80;4.30;;;;;;;15.23;69.79;94444.41;5112314;28;20192;-82
2022/09/14 00:45:54;;;;;;;4.60;4.20;;;;;;;16.12;70.29;94589.91;5111945;28;20687;-83
2022/09/14 00:48:24;;;;;;;4.70;4.23;;;;;;;16.08;70.07;94604.13;5112251;28;20195;-81
2022/09/14 00:50:54;;;;;;;5.93;4.20;;;;;;;16.04;70.06;94601.06;5112147;28;20250;-82
2022/09/14 00:53:21;;;;;;;4.40;3.77;;;;;;;15.71;70.54;94558.44;5112319;28;20204;-82
2022/09/14 00:55:50;;;;;;;4.83;4.13;;;;;;;15.00;71.25;94457.28;5112240;28;20203;-82
2022/09/14 00:58:16;;;;;;;6.13;4.40;;;;;;;15.65;69.88;94559.94;5112276;28;20664;-82
2022/09/14 01:00:43;;;;;;;5.67;3.83;;;;;;;15.82;68.64;94591.59;5111821;28;20196;-82
2022/09/14 01:03:10;;;;;;;8.10;4.27;;;;;;;15.96;69.21;94619.19;5111998;28;20196;-82
2022/09/14 01:06:05;;;;;;;4.37;3.97;;;;;;;15.42;69.71;94544.47;5111655;28;20312;-83
2022/09/14 01:08:52;;;;;;;10.30;4.00;;;;;;;15.57;69.27;94565.13;5112362;28;20193;-82
2022/09/14 01:11:38;;;;;;;6.17;4.20;;;;;;;15.84;70.45;94612.03;5111332;28;20218;-83
2022/09/14 01:14:11;;;;;;;4.50;4.10;;;;;;;15.79;70.99;94618.50;5111602;28;20185;-82
2022/09/14 01:16:46;;;;;;;4.40;3.77;;;;;;;15.43;70.84;94560.72;5119387;28;20185;-80
2022/09/14 01:19:22;;;;;;;5.60;4.50;;;;;;;14.61;71.52;94439.31;5123349;28;20219;-82
2022/09/14 01:21:52;;;;;;;5.03;4.20;;;;;;;15.47;71.42;94570.50;5118043;28;20188;-82
2022/09/14 01:24:28;;;;;;;5.10;4.60;;;;;;;15.32;72.22;94546.44;5111350;28;20185;-81
2022/09/14 01:27:23;;;;;;;4.30;3.67;;;;;;;15.69;72.50;94607.63;5111370;28;20227;-81
2022/09/14 01:29:57;;;;;;;7.70;4.33;;;;;;;15.06;72.28;94510.69;5110459;28;20196;-82
2022/09/14 01:32:28;;;;;;;4.47;4.07;;;;;;;15.02;72.90;94509.41;5111267;28;20196;-82
2022/09/14 01:35:01;;;;;;;4.73;4.33;;;;;;;15.57;73.05;94606.38;5111221;28;20643;-81
2022/09/14 01:37:33;;;;;;;4.30;3.90;;;;;;;15.19;73.01;94546.19;5111435;28;20193;-82
2022/09/14 01:40:05;;;;;;;4.77;4.33;;;;;;;15.51;73.25;94607.84;5111868;28;20185;-83
2022/09/14 01:42:35;;;;;;;5.03;3.90;;;;;;;15.52;73.59;94601.72;5111651;28;20181;-83
2022/09/14 01:45:07;;;;;;;6.47;4.23;;;;;;;14.88;73.62;94516.09;5110995;28;20199;-81
2022/09/14 01:47:39;;;;;;;5.30;4.37;;;;;;;15.42;73.63;94611.47;5112299;28;20228;-82
2022/09/14 01:50:12;;;;;;;4.33;4.03;;;;;;;15.46;73.55;94604.19;5112011;28;20193;-82
2022/09/14 01:52:46;;;;;;;5.30;4.80;;;;;;;14.90;73.48;94527.03;5111429;28;20189;-82
2022/09/14 01:55:18;;;;;;;6.67;4.63;;;;;;;15.43;74.34;94613.06;5111313;28;20599;-82
2022/09/14 01:57:51;;;;;;;6.93;4.33;;;;;;;14.58;74.06;94481.63;5112479;28;20196;-82
2022/09/14 02:00:21;;;;;;;4.90;4.50;;;;;;;15.37;74.44;94610.34;5111476;28;20189;-84
2022/09/14 02:02:52;;;;;;;5.23;4.40;;;;;;;14.51;74.43;94486.66;5111006;28;20207;-82
2022/09/14 02:05:28;;;;;;;4.50;4.10;;;;;;;14.91;74.18;94544.06;5110574;28;20229;-82
2022/09/14 02:07:56;;;;;;;4.90;4.47;;;;;;;14.72;74.63;94518.72;5111314;28;20188;-83
2022/09/14 02:10:24;;;;;;;6.50;4.53;;;;;;;15.04;75.18;94572.66;5115083;28;20199;-82
2022/09/14 02:12:54;;;;;;;5.57;4.97;;;;;;;15.20;75.31;94609.63;5112566;28;20193;-83
2022/09/14 02:15:24;;;;;;;4.77;4.33;;;;;;;15.17;74.86;94609.97;5110139;28;20193;-82
2022/09/14 02:17:52;;;;;;;5.17;4.43;;;;;;;15.14;75.02;94620.59;5110469;28;20201;-81
2022/09/14 02:20:23;;;;;;;10.17;4.40;;;;;;;14.95;75.88;94583.19;5110330;28;20203;-81
2022/09/14 02:22:52;;;;;;;6.73;4.67;;;;;;;15.11;74.89;94615.78;5110161;28;20189;-81
2022/09/14 02:25:20;;;;;;;6.73;4.40;;;;;;;14.99;75.48;94598.13;5110750;28;20200;-82
2022/09/14 02:27:47;;;;;;;6.27;5.27;;;;;;;15.05;75.35;94604.38;5110032;28;20212;-81
2022/09/14 02:30:17;;;;;;;4.40;4.00;;;;;;;15.02;75.88;94597.78;5110258;28;20199;-80
2022/09/14 02:32:55;;;;;;;4.93;4.23;;;;;;;15.02;76.30;94612.44;5110512;28;20560;-81
2022/09/14 02:35:30;;;;;;;5.40;4.77;;;;;;;14.99;76.22;94616.16;5089797;28;20193;-81
2022/09/14 02:38:04;;;;;;;5.17;4.63;;;;;;;14.97;75.90;94617.28;5089688;28;20655;-82
2022/09/14 02:40:35;;;;;;;5.57;4.10;;;;;;;14.77;75.86;94575.69;5093326;28;20653;-81
2022/09/14 02:43:13;;;;;;;5.40;4.30;;;;;;;14.73;76.19;94584.69;5109696;28;20578;-82
2022/09/14 02:45:52;;;;;;;8.50;4.70;;;;;;;14.24;76.46;94508.38;5109586;28;20200;-82
2022/09/14 02:48:29;;;;;;;8.07;4.63;;;;;;;14.87;76.46;94617.47;5109525;28;20181;-81
2022/09/14 02:51:04;;;;;;;5.23;4.73;;;;;;;14.01;77.04;94480.00;5109932;28;20211;-80
2022/09/14 02:53:39;;;;;;;5.60;4.80;;;;;;;14.86;76.75;94613.31;5109588;28;20196;-80
2022/09/14 02:56:10;;;;;;;5.83;4.57;;;;;;;14.89;76.52;94605.22;5109698;28;20571;-81
2022/09/14 02:58:39;;;;;;;6.20;4.57;;;;;;;14.84;77.14;94617.78;5109577;28;20181;-81
2022/09/14 03:01:11;;;;;;;5.43;4.93;;;;;;;14.77;76.41;94598.84;5089723;28;20192;-82
2022/09/14 03:03:38;;;;;;;6.50;4.87;;;;;;;14.86;76.28;94612.50;5100463;28;20189;-83
2022/09/14 03:06:06;;;;;;;5.20;4.57;;;;;;;14.90;76.63;94622.31;5109596;28;20236;-82
2022/09/14 03:08:33;;;;;;;8.57;4.77;;;;;;;14.84;77.32;94617.00;5109645;28;20197;-82
2022/09/14 03:11:00;;;;;;;6.13;3.80;;;;;;;14.80;77.07;94613.94;5109685;28;20193;-81
2022/09/14 03:13:27;;;;;;;9.37;4.83;;;;;;;14.84;76.78;94617.78;5109376;28;20185;-83
2022/09/14 03:15:54;;;;;;;6.97;5.03;;;;;;;14.80;76.69;94622.47;5109228;28;20656;-81
2022/09/14 03:18:22;;;;;;;8.63;5.43;;;;;;;14.49;76.95;94568.34;5090863;28;20351;-82
2022/09/14 03:20:49;;;;;;;5.13;4.63;;;;;;;14.76;77.02;94620.38;5109147;28;20197;-81
2022/09/14 03:23:16;;;;;;;5.57;4.97;;;;;;;13.68;76.37;94460.44;5109417;28;20203;-82
2022/09/14 03:25:44;;;;;;;6.10;4.37;;;;;;;14.73;76.63;94615.59;5109638;28;20643;-83
2022/09/14 03:28:12;;;;;;;5.33;4.83;;;;;;;13.72;76.76;94462.53;5109145;28;20220;-82
2022/09/14 03:30:39;;;;;;;5.80;5.00;;;;;;;14.68;76.95;94618.66;5109553;28;20195;-82
2022/09/14 03:33:06;;;;;;;7.67;4.83;;;;;;;14.46;76.90;94585.84;5108750;28;20773;-82
2022/09/14 03:35:34;;;;;;;8.97;4.83;;;;;;;14.67;77.17;94619.59;5111525;28;20205;-83
2022/09/14 03:38:02;;;;;;;6.30;4.80;;;;;;;14.30;77.14;94560.97;5110095;28;20200;-82
2022/09/14 03:40:29;;;;;;;5.00;4.50;;;;;;;14.44;77.02;94583.44;5108899;28;20725;-82
2022/09/14 03:42:56;;;;;;;11.63;4.87;;;;;;;14.64;77.13;94606.28;5109385;28;20220;-81
2022/09/14 03:45:23;;;;;;;5.23;4.63;;;;;;;14.63;77.48;94615.75;5113152;28;20185;-83
2022/09/14 03:47:50;;;;;;;7.07;5.10;;;;;;;14.14;77.79;94542.97;5109097;28;20216;-82
2022/09/14 03:50:18;;;;;;;7.27;5.00;;;;;;;14.63;77.75;94614.94;5109362;28;20190;-80
2022/09/14 03:52:46;;;;;;;5.50;5.00;;;;;;;14.19;77.86;94551.00;5111562;28;20193;-82
2022/09/14 03:55:13;;;;;;;6.70;4.90;;;;;;;14.58;77.65;94610.31;5112912;28;20193;-80
2022/09/14 03:57:40;;;;;;;5.33;4.83;;;;;;;13.85;77.64;94497.22;5114137;28;20196;-82
2022/09/14 04:00:09;;;;;;;7.27;5.47;;;;;;;14.62;77.87;94618.50;5113235;28;20200;-83
2022/09/14 04:02:36;;;;;;;6.37;4.70;;;;;;;14.07;77.15;94522.25;5113157;28;20181;-81
2022/09/14 04:05:03;;;;;;;9.70;6.50;;;;;;;14.19;77.46;94546.66;5114181;28;20219;-81
2022/09/14 04:07:29;;;;;;;6.70;5.03;;;;;;;14.60;78.23;94630.75;5112941;28;20220;-82
2022/09/14 04:09:58;;;;;;;6.77;6.00;;;;;;;14.56;78.45;94612.25;5113252;28;20563;-81
2022/09/14 04:12:25;;;;;;;16.07;5.50;;;;;;;14.59;77.93;94618.81;5113059;28;20197;-83
2022/09/14 04:14:52;;;;;;;8.80;5.07;;;;;;;14.55;78.94;94616.59;5112899;28;20195;-83
2022/09/14 04:17:19;;;;;;;7.67;6.10;;;;;;;14.23;79.02;94572.88;5112675;28;20193;-82
2022/09/14 04:19:46;;;;;;;9.23;5.50;;;;;;;14.49;79.04;94612.09;5112588;28;20185;-82
2022/09/14 04:22:13;;;;;;;9.23;4.97;;;;;;;13.92;78.21;94522.13;5113434;28;20264;-81
2022/09/14 04:24:39;;;;;;;13.27;6.37;;;;;;;14.52;78.64;94622.06;5112491;28;20189;-82
2022/09/14 04:27:08;;;;;;;10.53;6.00;;;;;;;14.41;78.97;94599.19;5112149;28;20686;-82
2022/09/14 04:29:34;;;;;;;13.50;6.30;;;;;;;14.61;78.62;94620.28;5112788;28;20546;-82
2022/09/14 04:32:03;;;;;;;5.90;5.30;;;;;;;14.58;79.69;94614.66;5116037;28;20185;-82
2022/09/14 04:34:30;;;;;;;7.20;5.50;;;;;;;13.28;78.88;94414.06;5112993;28;20200;-83
2022/09/14 04:36:57;;;;;;;8.67;5.50;;;;;;;14.67;78.84;94622.19;5117314;28;20197;-83
2022/09/14 04:39:25;;;;;;;6.70;5.20;;;;;;;14.65;79.22;94618.97;5116225;28;20185;-83
2022/09/14 04:41:52;;;;;;;9.50;5.60;;;;;;;14.70;78.87;94626.22;5113387;28;20212;-83
2022/09/14 04:44:20;;;;;;;16.97;6.47;;;;;;;14.36;79.35;94575.75;5113812;28;20189;-83
2022/09/14 04:46:48;;;;;;;9.87;6.10;;;;;;;14.73;78.84;94642.13;5113414;28;20205;-82
2022/09/14 04:49:17;;;;;;;8.37;5.83;;;;;;;14.74;78.98;94623.13;5114060;28;20185;-82
2022/09/14 04:51:45;;;;;;;10.97;5.60;;;;;;;13.97;79.67;94511.34;5112379;28;20193;-82
2022/09/14 04:54:14;;;;;;;9.20;6.00;;;;;;;14.64;78.71;94606.28;5115607;28;20230;-80
2022/09/14 04:56:42;;;;;;;9.67;6.20;;;;;;;14.91;78.49;94638.56;5121945;28;20199;-84
2022/09/14 04:59:09;;;;;;;12.47;6.37;;;;;;;14.41;78.04;94563.19;5118075;28;20197;-82
2022/09/14 05:01:39;;;;;;;11.27;6.57;;;;;;;14.90;79.33;94637.75;5113916;28;20671;-83
2022/09/14 05:04:07;;;;;;;9.23;7.03;;;;;;;15.14;78.01;94644.56;5114069;28;20567;-83
2022/09/14 05:06:36;;;;;;;11.17;6.53;;;;;;;13.80;78.98;94441.16;5112875;28;20229;-82
2022/09/14 05:09:05;;;;;;;16.70;7.23;;;;;;;15.29;77.78;94653.22;5111951;28;20623;-82
2022/09/14 05:11:35;;;;;;;12.30;6.67;;;;;;;15.41;77.64;94650.25;5111793;28;20666;-82
2022/09/14 05:14:02;;;;;;;14.10;6.20;;;;;;;15.19;76.56;94608.81;5111848;28;20199;-82
2022/09/14 05:16:31;;;;;;;13.50;6.73;;;;;;;15.56;76.24;94644.22;5112026;28;20276;-81
2022/09/14 05:19:02;;;;;;;16.77;7.30;;;;;;;15.35;75.98;94591.69;5111919;28;20189;-84
2022/09/14 05:21:30;;;;;;;13.83;6.37;;;;;;;14.87;74.37;94488.75;5111801;28;20189;-83
2022/09/14 05:23:58;;;;;;;8.50;5.83;;;;;;;16.04;73.38;94644.94;5111398;28;20196;-82
2022/09/14 05:26:27;;;;;;;17.83;6.83;;;;;;;16.13;73.73;94656.00;5111860;28;20196;-80
2022/09/14 05:28:56;;;;;;;12.57;6.70;;;;;;;15.14;73.59;94496.97;5110540;28;20192;-81
2022/09/14 05:31:24;;;;;;;7.37;6.20;;;;;;;16.44;72.84;94658.47;5111183;28;20195;-83
2022/09/14 05:33:51;;;;;;;9.73;6.90;;;;;;;15.75;71.98;94529.56;5109186;28;20616;-81
2022/09/14 05:36:20;;;;;;;10.90;7.37;;;;;;;16.62;71.49;94667.69;5097218;28;20207;-82
2022/09/14 05:38:47;;;;;;;9.47;6.97;;;;;;;16.80;72.47;94661.28;5094654;28;20205;-80
2022/09/14 05:41:15;;;;;;;12.97;7.37;;;;;;;16.90;70.61;94670.53;5104750;28;20193;-83
2022/09/14 05:43:43;;;;;;;12.60;6.70;;;;;;;16.94;70.32;94643.38;5107307;28;20192;-81
2022/09/14 05:46:12;;;;;;;12.37;6.87;;;;;;;16.94;69.81;94627.88;5101575;28;20205;-82
2022/09/14 05:48:40;;;;;;;11.03;6.67;;;;;;;16.48;68.79;94538.41;5093342;28;20217;-84
2022/09/14 05:51:10;;;;;;;14.33;6.53;;;;;;;17.55;67.97;94680.16;5095836;28;20186;-81
2022/09/14 05:53:38;;;;;;;9.17;5.57;;;;;;;17.47;67.59;94660.34;5106972;28;20193;-80
2022/09/14 05:56:09;;;;;;;16.67;6.00;;;;;;;17.74;66.79;94684.75;5077531;28;20638;-80
2022/09/14 05:58:39;;;;;;;11.33;6.53;;;;;;;17.51;65.37;94640.13;5096132;28;20193;-80
2022/09/14 06:01:08;;;;;;;10.30;6.13;;;;;;;17.77;65.52;94649.97;5094289;28;20204;-83
2022/09/14 06:03:36;;;;;;;9.10;6.37;;;;;;;18.04;64.77;94687.28;5093780;28;20664;-82
2022/09/14 06:06:03;;;;;;;12.50;5.40;;;;;;;18.14;65.03;94680.03;5097533;28;20221;-80
2022/09/14 06:08:31;;;;;;;9.07;5.40;;;;;;;17.94;63.99;94627.28;5099617;28;20220;-79
2022/09/14 06:11:04;;;;;;;6.57;5.90;;;;;;;17.35;65.41;94501.53;5099682;28;20201;-81
2022/09/14 06:13:31;;;;;;;10.70;5.93;;;;;;;18.61;64.00;94660.53;5083763;28;20188;-80
2022/09/14 06:16:02;;;;;;;10.03;6.57;;;;;;;19.02;63.89;94683.16;5092534;28;20204;-82
2022/09/14 06:18:30;;;;;;;9.43;6.97;;;;;;;19.25;61.62;94675.09;5094931;28;20212;-86
2022/09/14 06:20:57;;;;;;;7.67;5.63;;;;;;;19.58;63.23;94672.66;5104648;28;20186;-87
2022/09/14 06:23:24;;;;;;;8.43;5.70;;;;;;;19.26;61.78;94578.19;5101307;28;20398;-81
2022/09/14 06:25:53;;;;;;;8.77;5.77;;;;;;;19.86;60.34;94628.50;5080107;28;20607;-82
2022/09/14 06:28:22;;;;;;;12.20;6.23;;;;;;;20.04;58.72;94643.50;5097215;28;20784;-81
2022/09/14 06:30:49;;;;;;;5.63;4.77;;;;;;;19.61;59.63;94545.19;5098014;28;20668;-82
2022/09/14 06:33:16;;;;;;;6.37;4.50;;;;;;;20.50;58.03;94664.34;5096699;28;20241;-81
2022/09/14 06:35:45;;;;;;;8.13;5.10;;;;;;;20.75;58.82;94676.72;5098841;28;20307;-81
2022/09/14 06:38:13;;;;;;;5.03;4.43;;;;;;;21.00;58.00;94669.13;5095198;28;20272;-82
2022/09/14 06:40:40;;;;;;;11.53;5.20;;;;;;;21.21;56.35;94668.09;5098650;28;20232;-82
2022/09/14 06:43:06;;;;;;;7.28;4.88;;;;;;;21.28;53.88;94664.44;5097664;28;20612;-81
2022/09/14 06:45:35;;;;;;;6.55;4.90;;;;;;;21.34;56.22;94660.28;5097582;28;20204;-83
2022/09/14 06:48:02;;;;;;;6.93;4.47;;;;;;;21.61;55.80;94678.38;5097313;28;20241;-85
2022/09/14 06:50:29;;;;;;;5.65;4.40;;;;;;;21.82;55.24;94685.91;5093371;28;20208;-82
2022/09/14 06:52:56;;;;;;;8.15;3.90;;;;;;;22.04;54.63;94684.59;5089914;28;20200;-82
2022/09/14 06:55:23;;;;;;;7.53;4.40;;;;;;;22.21;53.69;94682.31;5091815;28;20194;-82
2022/09/14 06:57:50;;;;;;;9.75;4.80;;;;;;;22.38;51.84;94690.44;5089772;28;20841;-81
2022/09/14 07:00:18;;;;;;;6.25;4.45;;;;;;;22.29;53.44;94684.69;5106003;28;20201;-80
2022/09/14 07:02:46;;;;;;;8.15;4.75;;;;;;;22.20;53.27;94646.06;5103407;28;20202;-83
2022/09/14 07:05:14;;;;;;;7.07;4.68;;;;;;;22.58;51.28;94692.09;5100180;28;20777;-80
2022/09/14 07:07:41;;;;;;;9.20;4.43;;;;;;;22.48;52.27;94679.53;5092322;28;20224;-83
2022/09/14 07:10:08;;;;;;;7.80;4.25;;;;;;;22.67;53.71;94677.81;5095141;28;20198;-82
2022/09/14 07:12:35;;;;;;;7.15;4.03;;;;;;;22.82;53.04;94680.09;5100226;28;20207;-81
2022/09/14 07:15:03;;;;;;;5.50;4.22;;;;;;;22.96;52.39;94673.78;5099321;28;20200;-81
2022/09/14 07:17:30;;;;;;;8.20;4.38;;;;;;;22.91;49.95;94643.13;5090554;28;20199;-81
2022/09/14 07:19:58;;;;;;;6.70;4.40;;;;;;;23.03;50.90;94664.09;5093492;28;20707;-84
2022/09/14 07:22:25;;;;;;;9.00;4.25;;;;;;;22.49;51.35;94571.66;5077625;28;20189;-88
2022/09/14 07:24:52;;;;;;;4.97;4.15;;;;;;;23.24;51.92;94670.69;5098934;28;20200;-85
2022/09/14 07:27:19;;;;;;;5.85;4.60;;;;;;;23.10;49.94;94672.66;5090073;28;20513;-84
2022/09/14 07:29:46;;;;;;;5.75;3.97;;;;;;;23.14;50.63;94680.81;5101621;28;20195;-83
2022/09/14 07:32:13;;;;;;;5.50;4.70;;;;;;;23.29;51.57;94670.84;5098773;28;20213;-84
2022/09/14 07:34:39;;;;;;;10.68;4.80;;;;;;;23.16;49.47;94665.75;5104181;28;20193;-81
2022/09/14 07:37:08;;;;;;;4.57;4.13;;;;;;;22.62;50.46;94628.91;5096226;28;20192;-80
2022/09/14 07:39:34;;;;;;;10.13;3.95;;;;;;;22.96;51.67;94665.94;5091412;28;20204;-82
2022/09/14 07:42:01;;;;;;;7.47;4.75;;;;;;;23.12;51.08;94660.19;5100054;28;20193;-82
2022/09/14 07:44:28;;;;;;;7.35;5.25;;;;;;;23.01;49.82;94661.69;5096629;28;20192;-81
2022/09/14 07:46:55;;;;;;;7.15;4.88;;;;;;;22.96;50.91;94634.66;5097494;28;20651;-83
2022/09/14 07:49:22;;;;;;;7.45;4.68;;;;;;;22.56;50.74;94548.16;5096882;28;20224;-85
2022/09/14 07:51:49;;;;;;;6.50;4.47;;;;;;;22.54;51.01;94517.13;5103212;28;20299;-87
2022/09/14 07:54:18;;;;;;;7.60;4.93;;;;;;;23.57;50.26;94669.53;5095297;28;20190;-84
2022/09/14 07:56:46;;;;;;;7.45;4.50;;;;;;;23.77;50.35;94677.97;5103469;28;20583;-79
2022/09/14 07:59:15;;;;;;;5.55;4.40;;;;;;;23.72;50.31;94641.25;5094252;28;20186;-81
2022/09/14 08:01:42;;;;;;;5.82;3.70;;;;;;;24.01;48.64;94665.81;5097876;28;20238;-82
2022/09/14 08:04:09;;;;;;;5.47;4.43;;;;;;;24.03;48.64;94669.00;5092845;28;20189;-80
2022/09/14 08:06:36;;;;;;;14.35;4.35;;;;;;;24.16;49.55;94674.03;5100680;28;20695;-81
2022/09/14 08:09:07;;;;;;;5.28;4.43;;;;;;;24.31;48.35;94675.44;5098727;28;20213;-81
2022/09/14 08:11:36;;;;;;;8.23;4.75;;;;;;;24.42;49.30;94672.09;5099245;28;20194;-81
2022/09/14 08:14:05;;;;;;;6.78;4.30;;;;;;;24.32;48.39;94648.28;5101353;28;20190;-80
2022/09/14 08:16:34;;;;;;;5.55;3.72;;;;;;;23.86;47.25;94558.31;5097040;28;20188;-82
2022/09/14 08:19:03;;;;;;;5.28;3.70;;;;;;;24.48;47.43;94661.53;5096874;28;20195;-82
2022/09/14 08:21:31;;;;;;;4.95;4.30;;;;;;;24.53;47.67;94659.06;5100446;28;20221;-81
2022/09/14 08:24:01;;;;;;;7.57;4.15;;;;;;;24.36;48.19;94618.88;5106293;28;20613;-80
2022/09/14 08:26:28;;;;;;;4.90;4.10;;;;;;;24.71;46.41;94652.13;5110794;28;20185;-82
2022/09/14 08:28:58;;;;;;;8.57;4.00;;;;;;;24.52;47.33;94620.84;5106003;28;20617;-81
2022/09/14 08:31:27;;;;;;;6.55;4.80;;;;;;;24.79;46.31;94654.41;5100128;28;20204;-80
2022/09/14 08:33:56;;;;;;;5.05;4.45;;;;;;;24.44;45.73;94615.16;5109200;28;20189;-79
2022/09/14 08:36:24;;;;;;;6.35;4.38;;;;;;;24.48;46.34;94647.66;5096662;28;20201;-80
2022/09/14 08:38:51;;;;;;;4.60;4.05;;;;;;;24.41;47.22;94653.00;5094036;28;20246;-82
2022/09/14 08:41:27;;;;;;;7.70;3.90;;;;;;;24.23;48.06;94619.06;5098988;28;20564;-82
2022/09/14 08:43:54;;;;;;;9.50;4.00;;;;;;;24.58;47.46;94652.34;5097861;28;20291;-82
2022/09/14 08:46:29;;;;;;;6.57;4.32;;;;;;;24.54;46.87;94649.38;5102338;28;20193;-83
2022/09/14 08:48:57;;;;;;;4.80;4.28;;;;;;;24.48;46.45;94656.31;5103120;28;20252;-83
2022/09/14 08:51:26;;;;;;;8.93;4.70;;;;;;;23.97;46.67;94594.13;5109237;28;20200;-81
2022/09/14 08:53:56;;;;;;;9.85;4.55;;;;;;;24.39;47.09;94649.00;5102311;28;20199;-81
2022/09/14 08:56:26;;;;;;;6.90;4.65;;;;;;;24.12;46.95;94618.00;5098117;28;20197;-82
2022/09/14 08:59:07;;;;;;;7.13;3.88;;;;;;;24.32;47.41;94636.03;5094169;28;20197;-82
2022/09/14 09:01:46;;;;;;;9.20;4.32;;;;;;;24.16;47.79;94602.69;5104306;28;20206;-80
2022/09/14 09:04:30;;;;;;;4.97;4.05;;;;;;;24.46;47.47;94637.44;5096014;28;20193;-82
2022/09/14 09:07:05;;;;;;;13.15;4.40;;;;;;;24.59;47.67;94636.44;5097392;28;20251;-82
2022/09/14 09:09:40;;;;;;;6.07;3.83;;;;;;;24.71;47.04;94639.06;5099912;28;20308;-82
2022/09/14 09:12:12;;;;;;;5.45;4.18;;;;;;;24.46;47.38;94607.88;5102316;28;20196;-81
2022/09/14 09:14:43;;;;;;;8.10;4.30;;;;;;;24.69;47.08;94620.97;5107919;28;20189;-81
2022/09/14 09:17:18;;;;;;;11.25;4.53;;;;;;;24.90;47.13;94627.44;5102281;28;20201;-82
2022/09/14 09:20:01;;;;;;;7.47;4.28;;;;;;;23.78;47.06;94434.06;5092304;28;20188;-81
2022/09/14 09:22:35;;;;;;;8.27;4.47;;;;;;;25.09;47.39;94628.16;5093226;28;20193;-83
2022/09/14 09:25:05;;;;;;;9.88;4.25;;;;;;;25.16;47.30;94620.16;5102425;28;20204;-83
2022/09/14 09:27:32;;;;;;;6.63;5.10;;;;;;;25.14;45.17;94623.03;5105631;28;20193;-82
2022/09/14 09:29:58;;;;;;;6.18;5.13;;;;;;;25.05;46.64;94621.75;5100792;28;20712;-81
2022/09/14 09:32:27;;;;;;;8.85;4.47;;;;;;;25.08;46.65;94621.31;5102969;28;20185;-81
2022/09/14 09:34:54;;;;;;;6.35;4.18;;;;;;;25.12;47.21;94624.28;5101108;28;20189;-85
2022/09/14 09:37:23;;;;;;;6.32;4.38;;;;;;;24.37;46.55;94517.72;5096623;28;20267;-85
2022/09/14 09:39:51;;;;;;;9.73;4.75;;;;;;;25.12;46.90;94625.06;5099748;28;20200;-85
2022/09/14 09:42:21;;;;;;;8.73;5.05;;;;;;;25.18;46.48;94620.75;5101730;28;20555;-82
2022/09/14 09:45:00;;;;;;;10.43;4.75;;;;;;;25.21;45.26;94626.31;5097724;28;20277;-82
2022/09/14 09:47:32;;;;;;;10.35;4.53;;;;;;;25.19;46.38;94611.88;5102220;28;20188;-80
2022/09/14 09:50:01;;;;;;;8.20;4.30;;;;;;;25.12;46.93;94611.19;5093420;28;20221;-81
2022/09/14 09:52:30;;;;;;;7.72;5.25;;;;;;;24.84;46.13;94568.19;5097524;28;20190;-81
2022/09/14 09:54:58;;;;;;;5.72;4.60;;;;;;;24.96;46.03;94597.78;5094067;28;20189;-83
2022/09/14 09:57:30;;;;;;;6.20;4.75;;;;;;;25.08;46.61;94608.22;5096941;28;20212;-82
2022/09/14 10:00:18;;;;;;;9.93;4.22;;;;;;;25.12;46.41;94603.34;5093161;28;20509;-80
2022/09/14 10:02:48;;;;;;;10.77;4.65;;;;;;;25.10;46.35;94584.47;5096322;28;20193;-83
2022/09/14 10:05:21;;;;;;;6.60;4.32;;;;;;;25.13;45.92;94582.19;5097674;28;20217;-81
2022/09/14 10:07:56;;;;;;;6.93;4.47;;;;;;;25.25;46.29;94582.16;5091720;28;20212;-82
2022/09/14 10:10:26;;;;;;;8.73;4.55;;;;;;;24.65;46.28;94489.06;5097144;28;20196;-81
2022/09/14 10:12:56;;;;;;;8.52;4.82;;;;;;;25.15;46.29;94574.88;5088174;28;20193;-82
2022/09/14 10:15:25;;;;;;;5.47;4.38;;;;;;;25.17;45.89;94580.69;5100804;28;20193;-84
2022/09/14 10:18:08;;;;;;;7.82;4.55;;;;;;;25.08;46.27;94553.28;5103670;28;20196;-82
2022/09/14 10:20:37;;;;;;;9.70;4.20;;;;;;;25.25;46.23;94574.28;5092853;28;20280;-80
2022/09/14 10:23:25;;;;;;;5.57;4.18;;;;;;;25.14;46.65;94569.91;5108040;28;20196;-82
2022/09/14 10:25:53;;;;;;;6.47;3.72;;;;;;;25.09;46.15;94572.41;5106729;28;20194;-82
2022/09/14 10:28:27;;;;;;;9.93;4.50;;;;;;;25.21;45.61;94578.41;5102439;28;20216;-79
2022/09/14 10:31:00;;;;;;;6.97;3.90;;;;;;;24.94;46.04;94526.53;5106917;28;20189;-81
2022/09/14 10:33:29;;;;;;;5.65;3.83;;;;;;;25.02;45.06;94526.19;5103222;28;20196;-80
2022/09/14 10:36:06;;;;;;;4.30;3.15;;;;;;;25.33;45.21;94563.47;5107700;28;20216;-80
2022/09/14 10:38:39;;;;;;;2.15;1.80;;;;;;;25.19;39.92;94521.06;5111465;28;20199;-80
2022/09/14 10:41:27;;;;;;;1.65;1.50;;;;;;;25.53;41.07;94560.44;5109637;28;20193;-82
2022/09/14 10:44:24;;;;;;;2.85;1.80;;;;;;;25.44;40.38;94533.84;5104487;28;20303;-81
2022/09/14 10:47:08;;;;;;;1.90;1.75;;;;;;;25.60;40.55;94549.81;5092398;28;20264;-82
2022/09/14 10:49:48;;;;;;;2.75;1.70;;;;;;;25.77;38.34;94561.16;5098830;28;20247;-79
2022/09/14 10:52:24;;;;;;;2.17;1.98;;;;;;;25.71;38.56;94530.63;5098838;28;20201;-83
2022/09/14 10:55:33;;;;;;;2.85;2.17;;;;;;;25.90;38.96;94554.81;5099716;28;20215;-82
2022/09/14 10:58:16;;;;;;;2.20;2.00;;;;;;;25.25;38.09;94433.72;5029784;28;20199;-80
2022/09/14 11:00:59;;;;;;;3.88;2.00;;;;;;;26.10;38.62;94549.13;5038773;28;20219;-83
2022/09/14 11:03:51;;;;;;;3.70;1.88;;;;;;;26.07;38.77;94533.88;5034818;28;20673;-82
2022/09/14 11:06:28;;;;;;;1.70;1.60;;;;;;;26.26;37.81;94550.97;5032512;28;20223;-78
2022/09/14 11:09:00;;;;;;;4.50;2.28;;;;;;;26.22;36.81;94548.03;5038000;28;20215;-81
2022/09/14 11:11:38;;;;;;;3.63;1.83;;;;;;;26.28;37.97;94547.06;5038651;28;20605;-82
2022/09/14 11:14:17;;;;;;;5.57;1.70;;;;;;;26.37;37.66;94546.66;5054543;28;20246;-80
2022/09/14 11:17:06;;;;;;;2.05;1.80;;;;;;;26.18;38.25;94509.41;5063212;28;20242;-84
2022/09/14 11:19:41;;;;;;;4.05;2.30;;;;;;;26.39;37.10;94555.09;5042566;28;20701;-84
2022/09/14 11:22:20;;;;;;;2.22;1.92;;;;;;;26.31;36.95;94545.81;5040157;28;20195;-83
2022/09/14 11:24:52;;;;;;;4.45;2.45;;;;;;;26.11;37.10;94503.53;5039216;28;20589;-79
2022/09/14 11:27:25;;;;;;;2.25;2.05;;;;;;;26.49;37.29;94544.78;5043887;28;20706;-85
2022/09/14 11:29:56;;;;;;;3.30;2.95;;;;;;;25.60;37.31;94397.91;5046770;28;20217;-85
2022/09/14 11:32:31;;;;;;;4.25;1.98;;;;;;;26.21;37.12;94483.53;5035425;28;20358;-83
2022/09/14 11:35:04;;;;;;;3.40;2.42;;;;;;;26.12;37.68;94453.50;5072366;28;20204;-81
2022/09/14 11:37:40;;;;;;;2.75;2.35;;;;;;;25.88;38.20;94407.53;5090336;28;20232;-80
2022/09/14 11:40:15;;;;;;;2.15;2.00;;;;;;;25.97;38.08;94406.09;5101350;28;20329;-81
2022/09/14 11:42:50;;;;;;;2.80;2.60;;;;;;;26.79;37.84;94515.56;5095821;28;20216;-79
2022/09/14 11:45:23;;;;;;;3.10;2.17;;;;;;;26.68;38.34;94485.75;5094488;28;20189;-79
2022/09/14 11:47:59;;;;;;;2.60;2.40;;;;;;;26.37;38.01;94445.19;5098363;28;20212;-79